Página principal
METAR-TAF:

METAR-TAF

Aeroportos :

Aeroporto Internacional de Bonriki

Tarawa, Kiribati

latitude: 01-21N, longitude: 172-55E, altura: 2 m

Observação actual do tempo

O boletim foi feito há 15 minutos, às 01:00 UTC
Vento 17 kt de es-sudeste
Temperatura 31°C
Humidade 75%
Pressão 1006 hPa
Visibilidade 10 km ou mais
Nuvens dispersasa uma altura de 1900 ft

METAR: NGTA 160100Z 12017KT 9999 SCT019 31/26 Q1006

Hora: 15:15 (01:15 UTC)

Previsão

O boletim foi feito há 2 horas e 11 minutos, às 23:04 UTC
Previsão válida de 16 às 00 UTC a 16 às 24 UTC
Vento 15 kt de este
Visibilidade 10 km ou mais
Nuvens dispersasa uma altura de 1800 ft
Nuvens dispersasa uma altura de 10000 ft

TAF: NGTA 152304Z 1600/1624 10015KT 9999 SCT018 SCT100

Observações e previsões do tempo de mais de 4000 aeroportos (mensagens METAR e TAF).

As estações disponíveis são os pontos amarelos e vermelhos sobre o mapa.

Mova o rato sobre o mapa para ver o nome da estação.

Depois clique no ponto para visualizar as observações e previsões meteorológicas.

Para alterar o mapa : clique nos botões verdes com uma cruz preta para aumentar o zoom; no botão verde com uma pitada de zoom; ou nas setas verdes para mapas adjacentes.


METAR-TAF: